sensor_id;sensor_type;location;lat;lon;timestamp;P1;durP1;ratioP1;P2;durP2;ratioP2
78844;SDS011;68195;50.854;2.860;2024-02-21T00:00:05;3.75;;;2.15;;
78844;SDS011;68195;50.854;2.860;2024-02-21T00:02:30;4.25;;;2.70;;
78844;SDS011;68195;50.854;2.860;2024-02-21T00:04:59;2.70;;;2.13;;
78844;SDS011;68195;50.854;2.860;2024-02-21T00:07:27;4.13;;;2.72;;
78844;SDS011;68195;50.854;2.860;2024-02-21T00:09:53;4.40;;;2.55;;
78844;SDS011;68195;50.854;2.860;2024-02-21T00:12:20;4.25;;;2.47;;
78844;SDS011;68195;50.854;2.860;2024-02-21T00:14:48;4.57;;;3.00;;
78844;SDS011;68195;50.854;2.860;2024-02-21T00:17:13;5.22;;;2.55;;
78844;SDS011;68195;50.854;2.860;2024-02-21T00:19:39;3.88;;;2.90;;
78844;SDS011;68195;50.854;2.860;2024-02-21T00:22:09;4.63;;;2.90;;
78844;SDS011;68195;50.854;2.860;2024-02-21T00:24:34;5.78;;;2.92;;
78844;SDS011;68195;50.854;2.860;2024-02-21T00:27:02;4.38;;;2.63;;
78844;SDS011;68195;50.854;2.860;2024-02-21T00:29:29;3.78;;;2.42;;
78844;SDS011;68195;50.854;2.860;2024-02-21T00:32:00;5.90;;;3.05;;
78844;SDS011;68195;50.854;2.860;2024-02-21T00:34:27;4.75;;;2.78;;
78844;SDS011;68195;50.854;2.860;2024-02-21T00:36:53;4.97;;;2.58;;
78844;SDS011;68195;50.854;2.860;2024-02-21T00:39:18;4.05;;;2.58;;
78844;SDS011;68195;50.854;2.860;2024-02-21T00:41:46;7.45;;;2.95;;
78844;SDS011;68195;50.854;2.860;2024-02-21T00:44:12;6.00;;;3.25;;
78844;SDS011;68195;50.854;2.860;2024-02-21T00:46:40;6.03;;;2.90;;
78844;SDS011;68195;50.854;2.860;2024-02-21T00:49:07;4.53;;;2.70;;
78844;SDS011;68195;50.854;2.860;2024-02-21T00:51:35;5.72;;;2.70;;
78844;SDS011;68195;50.854;2.860;2024-02-21T00:54:00;8.55;;;3.65;;
78844;SDS011;68195;50.854;2.860;2024-02-21T00:56:31;6.60;;;3.90;;
78844;SDS011;68195;50.854;2.860;2024-02-21T00:58:56;7.35;;;3.53;;
78844;SDS011;68195;50.854;2.860;2024-02-21T01:01:22;5.85;;;3.50;;
78844;SDS011;68195;50.854;2.860;2024-02-21T01:03:50;5.47;;;3.53;;
78844;SDS011;68195;50.854;2.860;2024-02-21T01:06:20;5.80;;;3.83;;
78844;SDS011;68195;50.854;2.860;2024-02-21T01:08:49;5.43;;;3.25;;
78844;SDS011;68195;50.854;2.860;2024-02-21T01:11:17;6.47;;;4.40;;
78844;SDS011;68195;50.854;2.860;2024-02-21T01:13:47;8.85;;;4.07;;
78844;SDS011;68195;50.854;2.860;2024-02-21T01:16:13;6.22;;;3.92;;
78844;SDS011;68195;50.854;2.860;2024-02-21T01:18:43;5.45;;;3.67;;
78844;SDS011;68195;50.854;2.860;2024-02-21T01:21:08;6.93;;;3.95;;
78844;SDS011;68195;50.854;2.860;2024-02-21T01:23:35;5.22;;;3.67;;
78844;SDS011;68195;50.854;2.860;2024-02-21T01:26:01;7.88;;;4.25;;
78844;SDS011;68195;50.854;2.860;2024-02-21T01:28:32;5.55;;;3.80;;
78844;SDS011;68195;50.854;2.860;2024-02-21T01:30:57;7.57;;;4.05;;
78844;SDS011;68195;50.854;2.860;2024-02-21T01:33:22;6.65;;;4.10;;
78844;SDS011;68195;50.854;2.860;2024-02-21T01:35:48;8.23;;;3.80;;
78844;SDS011;68195;50.854;2.860;2024-02-21T01:38:14;8.15;;;4.07;;
78844;SDS011;68195;50.854;2.860;2024-02-21T01:40:43;7.78;;;4.55;;
78844;SDS011;68195;50.854;2.860;2024-02-21T01:43:20;8.85;;;4.45;;
78844;SDS011;68195;50.854;2.860;2024-02-21T01:45:46;7.25;;;4.30;;
78844;SDS011;68195;50.854;2.860;2024-02-21T01:48:21;6.25;;;4.15;;
78844;SDS011;68195;50.854;2.860;2024-02-21T01:50:53;8.30;;;4.68;;
78844;SDS011;68195;50.854;2.860;2024-02-21T01:53:22;7.32;;;4.35;;
78844;SDS011;68195;50.854;2.860;2024-02-21T01:55:54;6.72;;;4.10;;
78844;SDS011;68195;50.854;2.860;2024-02-21T01:58:21;7.72;;;4.40;;
78844;SDS011;68195;50.854;2.860;2024-02-21T02:00:52;7.93;;;4.25;;
78844;SDS011;68195;50.854;2.860;2024-02-21T02:03:21;8.52;;;4.35;;
78844;SDS011;68195;50.854;2.860;2024-02-21T02:05:47;9.07;;;4.85;;
78844;SDS011;68195;50.854;2.860;2024-02-21T02:08:14;9.23;;;4.95;;
78844;SDS011;68195;50.854;2.860;2024-02-21T02:10:40;8.27;;;4.72;;
78844;SDS011;68195;50.854;2.860;2024-02-21T02:13:09;7.50;;;4.70;;
78844;SDS011;68195;50.854;2.860;2024-02-21T02:15:40;8.10;;;4.07;;
78844;SDS011;68195;50.854;2.860;2024-02-21T02:18:10;7.53;;;4.20;;
78844;SDS011;68195;50.854;2.860;2024-02-21T02:20:36;12.10;;;4.72;;
78844;SDS011;68195;50.854;2.860;2024-02-21T02:25:38;7.25;;;4.00;;
78844;SDS011;68195;50.854;2.860;2024-02-21T02:28:07;8.77;;;4.20;;
78844;SDS011;68195;50.854;2.860;2024-02-21T02:30:33;8.80;;;4.82;;
78844;SDS011;68195;50.854;2.860;2024-02-21T02:32:59;7.63;;;4.88;;
78844;SDS011;68195;50.854;2.860;2024-02-21T02:35:27;9.70;;;4.97;;
78844;SDS011;68195;50.854;2.860;2024-02-21T02:37:52;9.95;;;4.70;;
78844;SDS011;68195;50.854;2.860;2024-02-21T02:40:20;8.15;;;4.75;;
78844;SDS011;68195;50.854;2.860;2024-02-21T02:42:45;9.50;;;4.78;;
78844;SDS011;68195;50.854;2.860;2024-02-21T02:45:14;11.25;;;5.00;;
78844;SDS011;68195;50.854;2.860;2024-02-21T02:47:46;7.18;;;4.75;;
78844;SDS011;68195;50.854;2.860;2024-02-21T02:50:14;11.52;;;4.93;;
78844;SDS011;68195;50.854;2.860;2024-02-21T02:52:40;12.98;;;5.10;;
78844;SDS011;68195;50.854;2.860;2024-02-21T02:55:05;10.77;;;4.95;;
78844;SDS011;68195;50.854;2.860;2024-02-21T02:57:33;10.07;;;5.43;;
78844;SDS011;68195;50.854;2.860;2024-02-21T02:59:59;12.57;;;4.93;;
78844;SDS011;68195;50.854;2.860;2024-02-21T03:02:27;11.57;;;5.47;;
78844;SDS011;68195;50.854;2.860;2024-02-21T03:04:56;14.60;;;5.05;;
78844;SDS011;68195;50.854;2.860;2024-02-21T03:07:25;11.63;;;5.78;;
78844;SDS011;68195;50.854;2.860;2024-02-21T03:09:52;14.13;;;5.28;;
78844;SDS011;68195;50.854;2.860;2024-02-21T03:12:18;7.70;;;5.10;;
78844;SDS011;68195;50.854;2.860;2024-02-21T03:14:51;10.13;;;5.53;;
78844;SDS011;68195;50.854;2.860;2024-02-21T03:17:21;11.35;;;5.60;;
78844;SDS011;68195;50.854;2.860;2024-02-21T03:19:49;10.50;;;5.63;;
78844;SDS011;68195;50.854;2.860;2024-02-21T03:22:17;12.63;;;5.47;;
78844;SDS011;68195;50.854;2.860;2024-02-21T03:24:43;16.23;;;6.07;;
78844;SDS011;68195;50.854;2.860;2024-02-21T03:27:11;12.20;;;5.60;;
78844;SDS011;68195;50.854;2.860;2024-02-21T03:29:39;10.15;;;5.78;;
78844;SDS011;68195;50.854;2.860;2024-02-21T03:32:07;12.57;;;5.60;;
78844;SDS011;68195;50.854;2.860;2024-02-21T03:34:35;10.82;;;5.85;;
78844;SDS011;68195;50.854;2.860;2024-02-21T03:37:03;13.43;;;6.38;;
78844;SDS011;68195;50.854;2.860;2024-02-21T03:39:31;13.20;;;6.55;;
78844;SDS011;68195;50.854;2.860;2024-02-21T03:42:00;14.93;;;6.40;;
78844;SDS011;68195;50.854;2.860;2024-02-21T03:44:30;16.25;;;6.80;;
78844;SDS011;68195;50.854;2.860;2024-02-21T03:47:01;11.52;;;5.43;;
78844;SDS011;68195;50.854;2.860;2024-02-21T03:49:29;11.48;;;5.53;;
78844;SDS011;68195;50.854;2.860;2024-02-21T03:51:54;7.35;;;5.25;;
78844;SDS011;68195;50.854;2.860;2024-02-21T03:54:25;10.50;;;5.55;;
78844;SDS011;68195;50.854;2.860;2024-02-21T03:56:50;10.32;;;5.72;;
78844;SDS011;68195;50.854;2.860;2024-02-21T03:59:15;13.02;;;5.97;;
78844;SDS011;68195;50.854;2.860;2024-02-21T04:01:43;10.98;;;5.65;;
78844;SDS011;68195;50.854;2.860;2024-02-21T04:04:09;8.52;;;4.85;;
78844;SDS011;68195;50.854;2.860;2024-02-21T04:06:45;10.95;;;5.10;;
78844;SDS011;68195;50.854;2.860;2024-02-21T04:09:14;12.15;;;5.55;;
78844;SDS011;68195;50.854;2.860;2024-02-21T04:11:39;10.07;;;5.32;;
78844;SDS011;68195;50.854;2.860;2024-02-21T04:14:05;10.60;;;6.10;;
78844;SDS011;68195;50.854;2.860;2024-02-21T04:16:32;11.93;;;4.97;;
78844;SDS011;68195;50.854;2.860;2024-02-21T04:21:27;15.45;;;5.68;;
78844;SDS011;68195;50.854;2.860;2024-02-21T04:23:59;11.38;;;5.57;;
78844;SDS011;68195;50.854;2.860;2024-02-21T04:26:27;9.95;;;5.13;;
78844;SDS011;68195;50.854;2.860;2024-02-21T04:28:55;10.88;;;5.20;;
78844;SDS011;68195;50.854;2.860;2024-02-21T04:31:20;8.93;;;5.03;;
78844;SDS011;68195;50.854;2.860;2024-02-21T04:33:49;8.02;;;4.90;;
78844;SDS011;68195;50.854;2.860;2024-02-21T04:36:17;12.48;;;5.35;;
78844;SDS011;68195;50.854;2.860;2024-02-21T04:38:46;11.00;;;5.03;;
78844;SDS011;68195;50.854;2.860;2024-02-21T04:41:13;11.57;;;5.93;;
78844;SDS011;68195;50.854;2.860;2024-02-21T04:43:41;9.95;;;5.47;;
78844;SDS011;68195;50.854;2.860;2024-02-21T04:46:07;11.55;;;6.55;;
78844;SDS011;68195;50.854;2.860;2024-02-21T04:48:35;9.00;;;4.95;;
78844;SDS011;68195;50.854;2.860;2024-02-21T04:51:00;10.02;;;5.45;;
78844;SDS011;68195;50.854;2.860;2024-02-21T04:53:25;7.78;;;5.63;;
78844;SDS011;68195;50.854;2.860;2024-02-21T04:55:51;11.07;;;5.60;;
78844;SDS011;68195;50.854;2.860;2024-02-21T04:58:16;12.52;;;5.47;;
78844;SDS011;68195;50.854;2.860;2024-02-21T05:00:42;9.27;;;4.90;;
78844;SDS011;68195;50.854;2.860;2024-02-21T05:03:07;8.35;;;5.53;;
78844;SDS011;68195;50.854;2.860;2024-02-21T05:05:36;8.45;;;5.80;;
78844;SDS011;68195;50.854;2.860;2024-02-21T05:08:03;11.93;;;4.55;;
78844;SDS011;68195;50.854;2.860;2024-02-21T05:10:32;9.05;;;4.65;;
78844;SDS011;68195;50.854;2.860;2024-02-21T05:13:00;7.70;;;4.55;;
78844;SDS011;68195;50.854;2.860;2024-02-21T05:15:29;10.80;;;5.15;;
78844;SDS011;68195;50.854;2.860;2024-02-21T05:17:57;12.93;;;5.30;;
78844;SDS011;68195;50.854;2.860;2024-02-21T05:20:24;10.57;;;5.20;;
78844;SDS011;68195;50.854;2.860;2024-02-21T05:22:52;8.43;;;4.78;;
78844;SDS011;68195;50.854;2.860;2024-02-21T05:25:18;8.77;;;4.88;;
78844;SDS011;68195;50.854;2.860;2024-02-21T05:27:46;6.85;;;4.00;;
78844;SDS011;68195;50.854;2.860;2024-02-21T05:30:12;11.75;;;5.32;;
78844;SDS011;68195;50.854;2.860;2024-02-21T05:32:40;9.10;;;4.60;;
78844;SDS011;68195;50.854;2.860;2024-02-21T05:35:10;10.20;;;4.97;;
78844;SDS011;68195;50.854;2.860;2024-02-21T05:37:38;7.43;;;4.70;;
78844;SDS011;68195;50.854;2.860;2024-02-21T05:40:05;10.57;;;5.25;;
78844;SDS011;68195;50.854;2.860;2024-02-21T05:42:31;11.07;;;4.93;;
78844;SDS011;68195;50.854;2.860;2024-02-21T05:44:57;9.52;;;4.97;;
78844;SDS011;68195;50.854;2.860;2024-02-21T05:47:22;8.45;;;5.03;;
78844;SDS011;68195;50.854;2.860;2024-02-21T05:49:52;8.70;;;4.38;;
78844;SDS011;68195;50.854;2.860;2024-02-21T05:52:19;9.38;;;4.55;;
78844;SDS011;68195;50.854;2.860;2024-02-21T05:54:47;7.38;;;4.38;;
78844;SDS011;68195;50.854;2.860;2024-02-21T05:57:16;7.07;;;4.90;;
78844;SDS011;68195;50.854;2.860;2024-02-21T05:59:47;10.85;;;4.75;;
78844;SDS011;68195;50.854;2.860;2024-02-21T06:02:15;10.38;;;5.60;;
78844;SDS011;68195;50.854;2.860;2024-02-21T06:04:45;8.90;;;4.68;;
78844;SDS011;68195;50.854;2.860;2024-02-21T06:07:11;9.82;;;4.75;;
78844;SDS011;68195;50.854;2.860;2024-02-21T06:09:36;6.75;;;4.07;;
78844;SDS011;68195;50.854;2.860;2024-02-21T06:12:02;9.07;;;4.65;;
78844;SDS011;68195;50.854;2.860;2024-02-21T06:14:28;6.20;;;4.25;;
78844;SDS011;68195;50.854;2.860;2024-02-21T06:16:53;8.23;;;4.22;;
78844;SDS011;68195;50.854;2.860;2024-02-21T06:19:20;7.15;;;4.57;;
78844;SDS011;68195;50.854;2.860;2024-02-21T06:21:50;8.05;;;4.25;;
78844;SDS011;68195;50.854;2.860;2024-02-21T06:24:15;7.15;;;5.07;;
78844;SDS011;68195;50.854;2.860;2024-02-21T06:26:41;9.85;;;4.57;;
78844;SDS011;68195;50.854;2.860;2024-02-21T06:29:09;7.32;;;3.92;;
78844;SDS011;68195;50.854;2.860;2024-02-21T06:31:36;9.07;;;4.53;;
78844;SDS011;68195;50.854;2.860;2024-02-21T06:34:04;8.93;;;5.05;;
78844;SDS011;68195;50.854;2.860;2024-02-21T06:36:34;4.93;;;4.22;;
78844;SDS011;68195;50.854;2.860;2024-02-21T06:39:02;7.70;;;4.70;;
78844;SDS011;68195;50.854;2.860;2024-02-21T06:41:35;11.35;;;4.70;;
78844;SDS011;68195;50.854;2.860;2024-02-21T06:44:00;9.50;;;4.70;;
78844;SDS011;68195;50.854;2.860;2024-02-21T06:46:28;9.95;;;4.95;;
78844;SDS011;68195;50.854;2.860;2024-02-21T06:48:58;8.70;;;4.18;;
78844;SDS011;68195;50.854;2.860;2024-02-21T06:51:27;7.43;;;4.90;;
78844;SDS011;68195;50.854;2.860;2024-02-21T06:53:53;7.70;;;4.18;;
78844;SDS011;68195;50.854;2.860;2024-02-21T06:56:19;5.47;;;4.40;;
78844;SDS011;68195;50.854;2.860;2024-02-21T06:58:45;10.02;;;5.03;;
78844;SDS011;68195;50.854;2.860;2024-02-21T07:01:13;7.65;;;4.22;;
78844;SDS011;68195;50.854;2.860;2024-02-21T07:03:44;10.55;;;5.32;;
78844;SDS011;68195;50.854;2.860;2024-02-21T07:06:09;7.00;;;4.38;;
78844;SDS011;68195;50.854;2.860;2024-02-21T07:08:34;7.03;;;4.10;;
78844;SDS011;68195;50.854;2.860;2024-02-21T07:11:00;6.80;;;4.28;;
78844;SDS011;68195;50.854;2.860;2024-02-21T07:13:28;7.72;;;4.05;;
78844;SDS011;68195;50.854;2.860;2024-02-21T07:15:53;7.53;;;4.32;;
78844;SDS011;68195;50.854;2.860;2024-02-21T07:18:18;7.95;;;4.22;;
78844;SDS011;68195;50.854;2.860;2024-02-21T07:20:44;8.07;;;4.15;;
78844;SDS011;68195;50.854;2.860;2024-02-21T07:23:12;7.95;;;4.50;;
78844;SDS011;68195;50.854;2.860;2024-02-21T07:25:38;8.20;;;4.85;;
78844;SDS011;68195;50.854;2.860;2024-02-21T07:28:08;7.43;;;3.72;;
78844;SDS011;68195;50.854;2.860;2024-02-21T07:30:36;6.18;;;3.50;;
78844;SDS011;68195;50.854;2.860;2024-02-21T07:33:05;5.32;;;3.83;;
78844;SDS011;68195;50.854;2.860;2024-02-21T07:35:35;5.18;;;4.05;;
78844;SDS011;68195;50.854;2.860;2024-02-21T07:38:05;7.25;;;4.82;;
78844;SDS011;68195;50.854;2.860;2024-02-21T07:40:31;7.00;;;4.40;;
78844;SDS011;68195;50.854;2.860;2024-02-21T07:43:01;7.70;;;4.55;;
78844;SDS011;68195;50.854;2.860;2024-02-21T07:45:26;8.77;;;4.13;;
78844;SDS011;68195;50.854;2.860;2024-02-21T07:47:51;7.05;;;3.80;;
78844;SDS011;68195;50.854;2.860;2024-02-21T07:50:24;7.70;;;5.20;;
78844;SDS011;68195;50.854;2.860;2024-02-21T07:52:52;9.70;;;4.75;;
78844;SDS011;68195;50.854;2.860;2024-02-21T07:55:17;7.90;;;3.67;;
78844;SDS011;68195;50.854;2.860;2024-02-21T07:57:43;7.75;;;4.28;;
78844;SDS011;68195;50.854;2.860;2024-02-21T08:00:08;7.20;;;4.30;;
78844;SDS011;68195;50.854;2.860;2024-02-21T08:02:37;7.72;;;4.57;;
78844;SDS011;68195;50.854;2.860;2024-02-21T08:05:03;6.95;;;4.70;;
78844;SDS011;68195;50.854;2.860;2024-02-21T08:07:30;9.48;;;4.63;;
78844;SDS011;68195;50.854;2.860;2024-02-21T08:09:58;8.60;;;4.85;;
78844;SDS011;68195;50.854;2.860;2024-02-21T08:12:24;10.25;;;4.43;;
78844;SDS011;68195;50.854;2.860;2024-02-21T08:14:49;6.30;;;4.32;;
78844;SDS011;68195;50.854;2.860;2024-02-21T08:17:16;8.25;;;4.15;;
78844;SDS011;68195;50.854;2.860;2024-02-21T08:19:46;6.97;;;4.80;;
78844;SDS011;68195;50.854;2.860;2024-02-21T08:22:14;7.68;;;4.05;;
78844;SDS011;68195;50.854;2.860;2024-02-21T08:24:42;9.50;;;5.13;;
78844;SDS011;68195;50.854;2.860;2024-02-21T08:27:07;7.07;;;5.15;;
78844;SDS011;68195;50.854;2.860;2024-02-21T08:29:32;13.27;;;5.53;;
78844;SDS011;68195;50.854;2.860;2024-02-21T08:31:58;9.23;;;5.10;;
78844;SDS011;68195;50.854;2.860;2024-02-21T08:34:23;9.05;;;5.35;;
78844;SDS011;68195;50.854;2.860;2024-02-21T08:36:51;10.25;;;5.63;;
78844;SDS011;68195;50.854;2.860;2024-02-21T08:39:16;11.93;;;6.15;;
78844;SDS011;68195;50.854;2.860;2024-02-21T08:41:42;13.88;;;6.30;;
78844;SDS011;68195;50.854;2.860;2024-02-21T08:44:10;11.32;;;6.18;;
78844;SDS011;68195;50.854;2.860;2024-02-21T08:46:36;11.40;;;6.47;;
78844;SDS011;68195;50.854;2.860;2024-02-21T08:49:07;11.02;;;5.85;;
78844;SDS011;68195;50.854;2.860;2024-02-21T08:51:35;15.52;;;6.30;;
78844;SDS011;68195;50.854;2.860;2024-02-21T08:54:03;10.38;;;6.22;;
78844;SDS011;68195;50.854;2.860;2024-02-21T08:56:33;13.75;;;6.28;;
78844;SDS011;68195;50.854;2.860;2024-02-21T08:59:01;9.52;;;6.32;;
78844;SDS011;68195;50.854;2.860;2024-02-21T09:03:52;12.53;;;5.80;;
78844;SDS011;68195;50.854;2.860;2024-02-21T09:06:20;8.80;;;6.30;;
78844;SDS011;68195;50.854;2.860;2024-02-21T09:08:46;9.32;;;6.22;;
78844;SDS011;68195;50.854;2.860;2024-02-21T09:11:14;10.13;;;5.40;;
78844;SDS011;68195;50.854;2.860;2024-02-21T09:13:39;12.57;;;6.28;;
78844;SDS011;68195;50.854;2.860;2024-02-21T09:16:07;10.75;;;6.93;;
78844;SDS011;68195;50.854;2.860;2024-02-21T09:18:36;11.07;;;5.78;;
78844;SDS011;68195;50.854;2.860;2024-02-21T09:21:02;14.60;;;5.88;;
78844;SDS011;68195;50.854;2.860;2024-02-21T09:23:30;15.00;;;6.55;;
78844;SDS011;68195;50.854;2.860;2024-02-21T09:25:56;11.07;;;6.95;;
78844;SDS011;68195;50.854;2.860;2024-02-21T09:28:22;10.55;;;6.53;;
78844;SDS011;68195;50.854;2.860;2024-02-21T09:30:47;10.00;;;5.75;;
78844;SDS011;68195;50.854;2.860;2024-02-21T09:33:15;11.15;;;6.53;;
78844;SDS011;68195;50.854;2.860;2024-02-21T09:35:43;10.32;;;6.50;;
78844;SDS011;68195;50.854;2.860;2024-02-21T09:38:08;13.07;;;6.38;;
78844;SDS011;68195;50.854;2.860;2024-02-21T09:40:38;8.85;;;6.00;;
78844;SDS011;68195;50.854;2.860;2024-02-21T09:43:09;9.95;;;6.13;;
78844;SDS011;68195;50.854;2.860;2024-02-21T09:45:38;8.45;;;5.70;;
78844;SDS011;68195;50.854;2.860;2024-02-21T09:51:20;7.53;;;5.13;;
78844;SDS011;68195;50.854;2.860;2024-02-21T09:53:46;9.70;;;5.00;;
78844;SDS011;68195;50.854;2.860;2024-02-21T09:56:16;9.88;;;6.85;;
78844;SDS011;68195;50.854;2.860;2024-02-21T09:58:44;11.32;;;7.07;;
78844;SDS011;68195;50.854;2.860;2024-02-21T10:01:09;9.15;;;5.20;;
78844;SDS011;68195;50.854;2.860;2024-02-21T10:03:34;7.43;;;5.57;;
78844;SDS011;68195;50.854;2.860;2024-02-21T10:06:03;9.18;;;5.93;;
78844;SDS011;68195;50.854;2.860;2024-02-21T10:08:28;9.65;;;5.72;;
78844;SDS011;68195;50.854;2.860;2024-02-21T10:10:56;8.98;;;5.78;;
78844;SDS011;68195;50.854;2.860;2024-02-21T10:13:25;11.07;;;5.40;;
78844;SDS011;68195;50.854;2.860;2024-02-21T10:18:31;9.20;;;5.13;;
78844;SDS011;68195;50.854;2.860;2024-02-21T10:21:06;9.90;;;5.80;;
78844;SDS011;68195;50.854;2.860;2024-02-21T10:26:10;10.07;;;6.25;;
78844;SDS011;68195;50.854;2.860;2024-02-21T10:28:38;8.60;;;4.85;;
78844;SDS011;68195;50.854;2.860;2024-02-21T10:31:20;8.57;;;5.65;;
78844;SDS011;68195;50.854;2.860;2024-02-21T10:33:59;8.23;;;5.22;;
78844;SDS011;68195;50.854;2.860;2024-02-21T10:36:28;6.75;;;4.65;;
78844;SDS011;68195;50.854;2.860;2024-02-21T10:38:54;8.38;;;4.88;;
78844;SDS011;68195;50.854;2.860;2024-02-21T10:41:22;6.63;;;4.70;;
78844;SDS011;68195;50.854;2.860;2024-02-21T10:43:54;8.25;;;5.20;;
78844;SDS011;68195;50.854;2.860;2024-02-21T10:46:23;8.68;;;5.53;;
78844;SDS011;68195;50.854;2.860;2024-02-21T10:48:59;8.23;;;5.47;;
78844;SDS011;68195;50.854;2.860;2024-02-21T10:51:34;8.18;;;4.78;;
78844;SDS011;68195;50.854;2.860;2024-02-21T10:57:01;10.45;;;5.40;;
78844;SDS011;68195;50.854;2.860;2024-02-21T10:59:28;7.35;;;5.05;;
78844;SDS011;68195;50.854;2.860;2024-02-21T11:01:56;9.23;;;5.50;;
78844;SDS011;68195;50.854;2.860;2024-02-21T11:04:25;10.18;;;5.30;;
78844;SDS011;68195;50.854;2.860;2024-02-21T11:06:53;9.68;;;6.07;;
78844;SDS011;68195;50.854;2.860;2024-02-21T11:09:31;9.63;;;5.65;;
78844;SDS011;68195;50.854;2.860;2024-02-21T11:12:02;6.43;;;4.95;;
78844;SDS011;68195;50.854;2.860;2024-02-21T11:14:31;9.10;;;5.95;;
78844;SDS011;68195;50.854;2.860;2024-02-21T11:17:14;10.65;;;6.57;;
78844;SDS011;68195;50.854;2.860;2024-02-21T11:19:44;13.30;;;6.03;;
78844;SDS011;68195;50.854;2.860;2024-02-21T11:22:17;10.10;;;5.45;;
78844;SDS011;68195;50.854;2.860;2024-02-21T11:24:47;13.00;;;6.22;;
78844;SDS011;68195;50.854;2.860;2024-02-21T11:27:16;11.23;;;6.80;;
78844;SDS011;68195;50.854;2.860;2024-02-21T11:29:55;7.40;;;4.90;;
78844;SDS011;68195;50.854;2.860;2024-02-21T11:32:24;10.82;;;5.15;;
78844;SDS011;68195;50.854;2.860;2024-02-21T11:34:57;9.10;;;5.18;;
78844;SDS011;68195;50.854;2.860;2024-02-21T11:37:33;12.38;;;5.63;;
78844;SDS011;68195;50.854;2.860;2024-02-21T11:40:02;8.82;;;4.88;;
78844;SDS011;68195;50.854;2.860;2024-02-21T11:42:37;9.60;;;5.65;;
78844;SDS011;68195;50.854;2.860;2024-02-21T11:45:02;7.43;;;5.18;;
78844;SDS011;68195;50.854;2.860;2024-02-21T11:47:31;8.18;;;4.40;;
78844;SDS011;68195;50.854;2.860;2024-02-21T11:49:57;7.72;;;4.78;;
78844;SDS011;68195;50.854;2.860;2024-02-21T11:52:22;8.15;;;4.88;;
78844;SDS011;68195;50.854;2.860;2024-02-21T11:54:53;7.82;;;5.25;;
78844;SDS011;68195;50.854;2.860;2024-02-21T11:57:29;6.75;;;4.50;;
78844;SDS011;68195;50.854;2.860;2024-02-21T11:59:57;4.88;;;4.30;;
78844;SDS011;68195;50.854;2.860;2024-02-21T12:02:25;8.13;;;4.47;;
78844;SDS011;68195;50.854;2.860;2024-02-21T12:04:55;5.82;;;4.32;;
78844;SDS011;68195;50.854;2.860;2024-02-21T12:07:22;5.97;;;4.35;;
78844;SDS011;68195;50.854;2.860;2024-02-21T12:09:51;7.07;;;4.00;;
78844;SDS011;68195;50.854;2.860;2024-02-21T12:12:19;5.20;;;4.20;;
78844;SDS011;68195;50.854;2.860;2024-02-21T12:14:45;5.78;;;4.18;;
78844;SDS011;68195;50.854;2.860;2024-02-21T12:17:10;5.68;;;3.42;;
78844;SDS011;68195;50.854;2.860;2024-02-21T12:19:38;7.22;;;4.07;;
78844;SDS011;68195;50.854;2.860;2024-02-21T12:22:05;5.32;;;3.80;;
78844;SDS011;68195;50.854;2.860;2024-02-21T12:24:34;6.30;;;4.25;;
78844;SDS011;68195;50.854;2.860;2024-02-21T12:27:03;6.55;;;3.50;;
78844;SDS011;68195;50.854;2.860;2024-02-21T12:29:28;5.47;;;4.20;;
78844;SDS011;68195;50.854;2.860;2024-02-21T12:31:58;6.45;;;3.65;;
78844;SDS011;68195;50.854;2.860;2024-02-21T12:34:24;7.68;;;3.25;;
78844;SDS011;68195;50.854;2.860;2024-02-21T12:36:52;4.93;;;3.40;;
78844;SDS011;68195;50.854;2.860;2024-02-21T12:39:22;5.90;;;2.97;;
78844;SDS011;68195;50.854;2.860;2024-02-21T12:41:52;5.88;;;3.00;;
78844;SDS011;68195;50.854;2.860;2024-02-21T12:44:23;6.93;;;3.67;;
78844;SDS011;68195;50.854;2.860;2024-02-21T12:46:49;5.82;;;3.03;;
78844;SDS011;68195;50.854;2.860;2024-02-21T12:49:17;4.50;;;2.72;;
78844;SDS011;68195;50.854;2.860;2024-02-21T12:51:45;3.75;;;3.05;;
78844;SDS011;68195;50.854;2.860;2024-02-21T12:54:16;5.20;;;3.10;;
78844;SDS011;68195;50.854;2.860;2024-02-21T12:56:43;6.13;;;2.97;;
78844;SDS011;68195;50.854;2.860;2024-02-21T12:59:11;3.53;;;2.88;;
78844;SDS011;68195;50.854;2.860;2024-02-21T13:01:37;5.00;;;3.25;;
78844;SDS011;68195;50.854;2.860;2024-02-21T13:04:02;4.07;;;2.65;;
78844;SDS011;68195;50.854;2.860;2024-02-21T13:08:53;6.27;;;2.93;;
78844;SDS011;68195;50.854;2.860;2024-02-21T13:11:19;5.20;;;2.75;;
78844;SDS011;68195;50.854;2.860;2024-02-21T13:13:47;6.15;;;2.90;;
78844;SDS011;68195;50.854;2.860;2024-02-21T13:16:14;3.03;;;2.58;;
78844;SDS011;68195;50.854;2.860;2024-02-21T13:18:40;5.95;;;3.20;;
78844;SDS011;68195;50.854;2.860;2024-02-21T13:21:07;4.78;;;2.92;;
78844;SDS011;68195;50.854;2.860;2024-02-21T13:23:35;5.82;;;3.40;;
78844;SDS011;68195;50.854;2.860;2024-02-21T13:26:01;4.53;;;3.20;;
78844;SDS011;68195;50.854;2.860;2024-02-21T13:28:26;4.72;;;3.00;;
78844;SDS011;68195;50.854;2.860;2024-02-21T13:30:52;5.30;;;3.58;;
78844;SDS011;68195;50.854;2.860;2024-02-21T13:33:18;4.47;;;2.88;;
78844;SDS011;68195;50.854;2.860;2024-02-21T13:35:45;6.05;;;3.42;;
78844;SDS011;68195;50.854;2.860;2024-02-21T13:38:15;6.53;;;3.28;;
78844;SDS011;68195;50.854;2.860;2024-02-21T13:40:41;5.15;;;3.42;;
78844;SDS011;68195;50.854;2.860;2024-02-21T13:43:07;5.00;;;3.63;;
78844;SDS011;68195;50.854;2.860;2024-02-21T13:45:33;5.70;;;3.22;;
78844;SDS011;68195;50.854;2.860;2024-02-21T13:47:58;6.18;;;3.58;;
78844;SDS011;68195;50.854;2.860;2024-02-21T13:50:31;6.20;;;3.63;;
78844;SDS011;68195;50.854;2.860;2024-02-21T13:52:57;4.97;;;3.45;;
78844;SDS011;68195;50.854;2.860;2024-02-21T13:55:26;5.60;;;3.80;;
78844;SDS011;68195;50.854;2.860;2024-02-21T13:57:56;6.68;;;4.45;;
78844;SDS011;68195;50.854;2.860;2024-02-21T14:00:24;9.95;;;3.78;;
78844;SDS011;68195;50.854;2.860;2024-02-21T14:02:53;5.57;;;3.88;;
78844;SDS011;68195;50.854;2.860;2024-02-21T14:05:19;7.32;;;3.85;;
78844;SDS011;68195;50.854;2.860;2024-02-21T14:07:45;4.63;;;3.10;;
78844;SDS011;68195;50.854;2.860;2024-02-21T14:10:12;5.45;;;3.45;;
78844;SDS011;68195;50.854;2.860;2024-02-21T14:12:38;8.52;;;3.72;;
78844;SDS011;68195;50.854;2.860;2024-02-21T14:15:05;8.73;;;3.92;;
78844;SDS011;68195;50.854;2.860;2024-02-21T14:17:31;5.35;;;3.38;;
78844;SDS011;68195;50.854;2.860;2024-02-21T14:19:59;5.32;;;3.47;;
78844;SDS011;68195;50.854;2.860;2024-02-21T14:22:24;7.40;;;3.78;;
78844;SDS011;68195;50.854;2.860;2024-02-21T14:24:49;6.40;;;3.40;;
78844;SDS011;68195;50.854;2.860;2024-02-21T14:27:15;5.13;;;3.70;;
78844;SDS011;68195;50.854;2.860;2024-02-21T14:29:43;5.88;;;3.40;;
78844;SDS011;68195;50.854;2.860;2024-02-21T14:32:09;7.25;;;3.45;;
78844;SDS011;68195;50.854;2.860;2024-02-21T14:34:37;6.28;;;3.10;;
78844;SDS011;68195;50.854;2.860;2024-02-21T14:37:03;5.85;;;3.78;;
78844;SDS011;68195;50.854;2.860;2024-02-21T14:39:29;7.38;;;3.70;;
78844;SDS011;68195;50.854;2.860;2024-02-21T14:41:54;6.30;;;3.38;;
78844;SDS011;68195;50.854;2.860;2024-02-21T14:44:22;7.05;;;3.50;;
78844;SDS011;68195;50.854;2.860;2024-02-21T14:46:47;7.35;;;3.63;;
78844;SDS011;68195;50.854;2.860;2024-02-21T14:49:15;4.30;;;3.13;;
78844;SDS011;68195;50.854;2.860;2024-02-21T14:51:41;5.88;;;4.00;;
78844;SDS011;68195;50.854;2.860;2024-02-21T14:54:08;6.25;;;3.47;;
78844;SDS011;68195;50.854;2.860;2024-02-21T14:56:38;5.97;;;3.70;;
78844;SDS011;68195;50.854;2.860;2024-02-21T14:59:11;4.63;;;3.00;;
78844;SDS011;68195;50.854;2.860;2024-02-21T15:01:36;6.85;;;4.10;;
78844;SDS011;68195;50.854;2.860;2024-02-21T15:04:07;5.13;;;3.60;;
78844;SDS011;68195;50.854;2.860;2024-02-21T15:06:34;6.35;;;3.65;;